createdAt,value
2019-04-06T00:00:38.244Z,43.82
2019-04-06T00:03:06.259Z,44.35
2019-04-06T00:05:37.881Z,44.48
2019-04-06T00:08:05.878Z,44.38
2019-04-06T00:10:33.621Z,44.06
2019-04-06T00:13:01.800Z,44.07
2019-04-06T00:15:29.706Z,44.26
2019-04-06T00:17:57.472Z,44.88
2019-04-06T00:20:25.646Z,44.84
2019-04-06T00:22:53.371Z,44.65
2019-04-06T00:25:21.087Z,44.85
2019-04-06T00:27:48.846Z,45.44
2019-04-06T00:30:16.842Z,44.62
2019-04-06T00:33:03.358Z,44.30
2019-04-06T00:35:35.652Z,44.95
2019-04-06T00:38:00.990Z,44.35
2019-04-06T00:40:29.006Z,44.66
2019-04-06T00:42:56.715Z,44.53
2019-04-06T00:45:24.671Z,44.60
2019-04-06T00:47:52.426Z,44.87
2019-04-06T00:50:20.178Z,44.19
2019-04-06T00:52:48.095Z,44.53
2019-04-06T00:55:15.761Z,44.85
2019-04-06T00:57:43.578Z,44.69
2019-04-06T01:00:11.378Z,44.73
2019-04-06T01:02:39.163Z,44.52
2019-04-06T01:05:06.926Z,45.48
2019-04-06T01:07:34.752Z,44.22
2019-04-06T01:10:02.578Z,45.10
2019-04-06T01:12:30.327Z,44.36
2019-04-06T01:14:58.150Z,44.72
2019-04-06T01:17:26.945Z,44.68
2019-04-06T01:19:54.822Z,44.00
2019-04-06T01:22:22.641Z,44.64
2019-04-06T01:24:50.369Z,44.41
2019-04-06T01:27:18.213Z,44.91
2019-04-06T01:29:46.062Z,44.36
2019-04-06T01:32:13.831Z,44.64
2019-04-06T01:34:41.747Z,44.65
2019-04-06T01:37:09.574Z,45.19
2019-04-06T01:39:37.345Z,45.08
2019-04-06T01:42:05.154Z,44.32
2019-04-06T01:44:33.097Z,44.77
2019-04-06T01:47:00.815Z,44.65
2019-04-06T01:49:28.630Z,45.11
2019-04-06T01:51:56.518Z,45.25
2019-04-06T01:54:24.374Z,44.76
2019-04-06T01:56:52.265Z,45.92
2019-04-06T01:59:19.981Z,44.49
2019-04-06T02:01:55.199Z,44.66
2019-04-06T02:04:26.026Z,46.17
2019-04-06T02:06:53.839Z,44.67
2019-04-06T02:09:21.686Z,44.68
2019-04-06T02:11:49.462Z,44.15
2019-04-06T02:14:17.212Z,45.02
2019-04-06T02:16:45.039Z,44.95
2019-04-06T02:19:12.887Z,44.80
2019-04-06T02:21:40.735Z,44.75
2019-04-06T02:24:08.530Z,45.62
2019-04-06T02:26:36.358Z,44.70
2019-04-06T02:29:04.486Z,44.54
2019-04-06T02:31:52.597Z,45.08
2019-04-06T02:34:46.400Z,45.23
2019-04-06T02:37:31.072Z,45.46
2019-04-06T02:40:08.219Z,43.94
2019-04-06T02:42:45.559Z,45.22
2019-04-06T02:45:13.278Z,44.31
2019-04-06T02:47:41.104Z,45.51
2019-04-06T02:50:08.928Z,45.64
2019-04-06T02:52:36.734Z,45.29
2019-04-06T02:55:04.549Z,44.68
2019-04-06T02:57:32.426Z,46.32
2019-04-06T03:00:00.155Z,45.88
2019-04-06T03:02:27.863Z,44.92
2019-04-06T03:04:55.643Z,46.18
2019-04-06T03:07:23.373Z,44.83
2019-04-06T03:09:51.101Z,45.73
2019-04-06T03:12:18.799Z,45.37
2019-04-06T03:14:46.587Z,46.17
2019-04-06T03:17:14.331Z,45.71
2019-04-06T03:19:42.081Z,46.96
2019-04-06T03:22:09.873Z,45.17
2019-04-06T03:24:37.752Z,46.21
2019-04-06T03:27:08.714Z,45.39
2019-04-06T03:29:36.562Z,46.08
2019-04-06T03:32:04.405Z,44.52
2019-04-06T03:34:32.269Z,46.27
2019-04-06T03:37:00.122Z,44.67
2019-04-06T03:39:27.933Z,46.92
2019-04-06T03:41:55.748Z,46.51
2019-04-06T03:44:23.450Z,45.79
2019-04-06T03:46:51.255Z,44.87
2019-04-06T03:49:19.059Z,45.48
2019-04-06T03:51:46.839Z,45.46
2019-04-06T03:54:14.562Z,45.88
2019-04-06T03:56:42.543Z,46.11
2019-04-06T03:59:10.328Z,45.33
2019-04-06T04:01:38.045Z,45.00
2019-04-06T04:04:06.060Z,46.01
2019-04-06T04:06:36.176Z,46.05
2019-04-06T04:09:05.496Z,46.71
2019-04-06T04:11:33.316Z,45.85
2019-04-06T04:14:01.268Z,45.76
2019-04-06T04:16:28.976Z,46.35
2019-04-06T04:18:56.695Z,47.14
2019-04-06T04:21:24.506Z,47.07
2019-04-06T04:23:52.223Z,44.91
2019-04-06T04:26:19.959Z,45.69
2019-04-06T04:28:47.776Z,45.77
2019-04-06T04:31:15.517Z,45.23
2019-04-06T04:33:43.227Z,45.35
2019-04-06T04:36:10.945Z,45.66
2019-04-06T04:38:38.871Z,46.94
2019-04-06T04:41:06.607Z,45.85
2019-04-06T04:43:34.517Z,45.83
2019-04-06T04:46:05.604Z,45.95
2019-04-06T04:48:35.547Z,45.85
2019-04-06T04:51:03.340Z,47.82
2019-04-06T04:53:31.047Z,47.23
2019-04-06T04:55:58.872Z,45.34
2019-04-06T04:58:26.618Z,45.66
2019-04-06T05:00:54.359Z,47.73
2019-04-06T05:03:22.075Z,45.62
2019-04-06T05:05:49.778Z,45.41
2019-04-06T05:08:17.495Z,48.15
2019-04-06T05:10:45.244Z,46.13
2019-04-06T05:13:13.047Z,47.76
2019-04-06T05:16:00.679Z,45.90
2019-04-06T05:18:28.771Z,46.32
2019-04-06T05:20:59.596Z,45.26
2019-04-06T05:23:29.506Z,46.09
2019-04-06T05:25:57.228Z,46.54
2019-04-06T05:28:24.958Z,46.53
2019-04-06T05:30:52.660Z,47.41
2019-04-06T05:33:20.439Z,47.93
2019-04-06T05:35:48.178Z,48.87
2019-04-06T05:38:15.954Z,48.40
2019-04-06T05:40:43.701Z,50.20
2019-04-06T05:43:11.418Z,48.11
2019-04-06T05:45:39.138Z,48.51
2019-04-06T05:48:06.909Z,49.19
2019-04-06T05:50:34.732Z,49.07
2019-04-06T05:53:02.514Z,49.02
2019-04-06T05:55:30.216Z,50.56
2019-04-06T05:58:04.192Z,51.09
2019-04-06T06:00:27.734Z,50.16
2019-04-06T06:02:55.459Z,48.72
2019-04-06T06:05:27.247Z,52.10
2019-04-06T06:07:54.973Z,52.62
2019-04-06T06:10:22.701Z,50.73
2019-04-06T06:12:50.415Z,49.94
2019-04-06T06:15:18.152Z,50.62
2019-04-06T06:17:53.763Z,50.15
2019-04-06T06:20:30.852Z,50.27
2019-04-06T06:26:15.408Z,49.91
2019-04-06T06:28:43.103Z,49.61
2019-04-06T06:31:10.863Z,48.79
2019-04-06T06:33:38.894Z,49.92
2019-04-06T06:36:06.642Z,47.98
2019-04-06T06:38:34.430Z,47.37
2019-04-06T06:41:02.978Z,48.92
2019-04-06T06:43:30.850Z,47.51
2019-04-06T06:45:58.742Z,47.17
2019-04-06T06:48:35.577Z,48.00
2019-04-06T06:51:04.372Z,49.06
2019-04-06T06:53:32.106Z,48.69
2019-04-06T06:55:59.932Z,49.00
2019-04-06T06:58:27.685Z,48.52
2019-04-06T07:00:55.559Z,48.18
2019-04-06T07:03:23.383Z,47.81
2019-04-06T07:05:51.237Z,47.89
2019-04-06T07:08:19.559Z,49.22
2019-04-06T07:10:47.367Z,50.21
2019-04-06T07:13:15.319Z,48.73
2019-04-06T07:15:43.512Z,49.38
2019-04-06T07:18:11.554Z,50.34
2019-04-06T07:20:39.811Z,48.73
2019-04-06T07:23:22.672Z,49.73
2019-04-06T07:25:57.718Z,48.79
2019-04-06T07:28:20.386Z,49.18
2019-04-06T07:30:49.075Z,49.65
2019-04-06T07:33:16.884Z,49.32
2019-04-06T07:35:44.682Z,48.86
2019-04-06T07:38:12.394Z,48.64
2019-04-06T07:40:40.108Z,48.28
2019-04-06T07:43:07.991Z,48.30
2019-04-06T07:45:36.017Z,48.10
2019-04-06T07:48:03.794Z,48.49
2019-04-06T07:50:31.515Z,49.84
2019-04-06T07:52:59.255Z,49.14
2019-04-06T07:55:27.275Z,49.85
2019-04-06T07:57:55.142Z,48.87
2019-04-06T08:00:29.580Z,50.27
2019-04-06T08:02:57.466Z,50.27
2019-04-06T08:05:25.558Z,51.19
2019-04-06T08:07:53.562Z,49.99
2019-04-06T08:10:21.480Z,49.73
2019-04-06T08:12:49.295Z,51.05
2019-04-06T08:15:17.603Z,49.75
2019-04-06T08:17:45.420Z,50.44
2019-04-06T08:20:13.321Z,49.63
2019-04-06T08:22:42.133Z,49.61
2019-04-06T08:25:10.520Z,49.63
2019-04-06T08:27:38.275Z,50.48
2019-04-06T08:30:06.937Z,49.90
2019-04-06T08:32:34.757Z,50.51
2019-04-06T08:35:03.019Z,50.06
2019-04-06T08:37:31.031Z,50.86
2019-04-06T08:40:01.078Z,51.01
2019-04-06T08:42:31.359Z,50.46
2019-04-06T08:44:59.081Z,50.46
2019-04-06T08:47:28.687Z,49.34
2019-04-06T08:49:56.510Z,50.49
2019-04-06T08:52:24.226Z,49.41
2019-04-06T08:54:52.357Z,50.30
2019-04-06T08:57:22.500Z,49.07
2019-04-06T09:00:11.437Z,49.08
2019-04-06T09:02:39.232Z,50.23
2019-04-06T09:05:07.028Z,50.26
2019-04-06T09:07:43.834Z,50.06
2019-04-06T09:10:11.568Z,48.66
2019-04-06T09:12:39.406Z,49.74
2019-04-06T09:15:07.233Z,48.54
2019-04-06T09:17:34.983Z,49.64
2019-04-06T09:20:02.793Z,49.38
2019-04-06T09:22:30.891Z,48.12
2019-04-06T09:24:58.800Z,48.35
2019-04-06T09:27:26.758Z,47.79
2019-04-06T09:29:54.497Z,49.42
2019-04-06T09:32:22.293Z,48.33
2019-04-06T09:34:50.152Z,49.08
2019-04-06T09:37:18.042Z,48.25
2019-04-06T09:39:45.796Z,48.60
2019-04-06T09:42:13.914Z,48.10
2019-04-06T09:44:53.907Z,48.05
2019-04-06T09:47:32.836Z,47.66
2019-04-06T09:50:18.359Z,47.79
2019-04-06T09:53:08.263Z,48.23
2019-04-06T09:55:53.054Z,47.74
2019-04-06T09:58:39.891Z,48.38
2019-04-06T10:01:38.932Z,49.07
2019-04-06T10:04:23.117Z,48.90
2019-04-06T10:07:09.659Z,48.35
2019-04-06T10:09:47.875Z,48.54
2019-04-06T10:12:34.290Z,48.35
2019-04-06T10:15:31.544Z,48.06
2019-04-06T10:18:27.731Z,48.34
2019-04-06T10:21:06.707Z,48.16
2019-04-06T10:23:43.920Z,48.88
2019-04-06T10:26:31.040Z,48.41
2019-04-06T10:29:18.194Z,48.28
2019-04-06T10:32:14.273Z,48.06
2019-04-06T10:35:01.515Z,48.85
2019-04-06T10:37:57.643Z,49.22
2019-04-06T10:40:35.478Z,49.13
2019-04-06T10:43:20.940Z,49.35
2019-04-06T10:46:23.043Z,48.72
2019-04-06T10:48:57.052Z,48.93
2019-04-06T10:51:35.394Z,48.12
2019-04-06T10:54:31.234Z,48.46
2019-04-06T10:57:07.047Z,48.82
2019-04-06T11:00:00.921Z,49.77
2019-04-06T11:02:51.516Z,49.42
2019-04-06T11:05:30.156Z,49.84
2019-04-06T11:08:12.078Z,48.95
2019-04-06T11:10:57.920Z,49.75
2019-04-06T11:13:50.441Z,49.05
2019-04-06T11:16:28.066Z,50.74
2019-04-06T11:19:09.366Z,50.29
2019-04-06T11:21:56.211Z,50.39
2019-04-06T11:27:41.629Z,50.04
2019-04-06T11:30:37.590Z,49.73
2019-04-06T11:33:27.860Z,50.35
2019-04-06T11:36:26.283Z,50.33
2019-04-06T11:39:13.071Z,50.20
2019-04-06T11:41:50.600Z,50.31
2019-04-06T11:44:55.708Z,50.12
2019-04-06T11:47:41.483Z,49.36
2019-04-06T11:50:21.840Z,49.32
2019-04-06T11:53:24.023Z,48.66
2019-04-06T11:56:25.989Z,48.47
2019-04-06T11:59:15.631Z,48.62
2019-04-06T12:01:54.502Z,48.94
2019-04-06T12:04:50.228Z,49.04
2019-04-06T12:07:36.983Z,48.70
2019-04-06T12:10:24.002Z,49.09
2019-04-06T12:13:09.639Z,48.80
2019-04-06T12:15:55.605Z,48.24
2019-04-06T12:18:28.822Z,48.52
2019-04-06T12:21:14.186Z,48.54
2019-04-06T12:23:56.194Z,48.90
2019-04-06T12:26:48.859Z,49.14
2019-04-06T12:29:34.235Z,48.88
2019-04-06T12:32:22.510Z,48.79
2019-04-06T12:35:21.746Z,49.34
2019-04-06T12:38:20.748Z,48.56
2019-04-06T12:41:03.172Z,48.12
2019-04-06T12:43:50.024Z,48.01
2019-04-06T12:46:36.916Z,47.98
2019-04-06T12:49:13.435Z,48.02
2019-04-06T12:52:15.789Z,48.49
2019-04-06T12:55:02.699Z,48.37
2019-04-06T12:57:46.237Z,46.20
2019-04-06T13:00:20.499Z,47.91
2019-04-06T13:03:16.496Z,48.94
2019-04-06T13:05:50.237Z,48.61
2019-04-06T13:08:32.784Z,47.50
2019-04-06T13:11:30.449Z,47.99
2019-04-06T13:14:21.353Z,47.32
2019-04-06T13:17:07.238Z,48.52
2019-04-06T13:20:06.162Z,47.77
2019-04-06T13:23:08.947Z,47.45
2019-04-06T13:26:01.741Z,47.72
2019-04-06T13:31:46.755Z,47.82
2019-04-06T13:34:59.458Z,46.95
2019-04-06T13:37:54.967Z,47.09
2019-04-06T13:40:42.693Z,47.23
2019-04-06T13:43:29.017Z,47.00
2019-04-06T13:46:10.505Z,45.95
2019-04-06T13:49:06.691Z,47.66
2019-04-06T13:52:02.486Z,46.62
2019-04-06T13:54:48.666Z,45.67
2019-04-06T13:57:54.412Z,46.74
2019-04-06T14:00:56.497Z,46.88
2019-04-06T14:03:43.946Z,46.88
2019-04-06T14:06:21.665Z,46.77
2019-04-06T14:09:07.399Z,45.17
2019-04-06T14:15:34.985Z,46.42
2019-04-06T14:18:21.049Z,46.73
2019-04-06T14:21:14.082Z,46.21
2019-04-06T14:24:04.269Z,46.69
2019-04-06T14:27:09.743Z,45.58
2019-04-06T14:29:51.736Z,46.38
2019-04-06T14:32:37.863Z,46.58
2019-04-06T14:35:18.758Z,46.08
2019-04-06T14:38:04.540Z,46.10
2019-04-06T14:40:50.400Z,46.01
2019-04-06T14:43:45.375Z,46.29
2019-04-06T14:46:38.395Z,46.25
2019-04-06T14:49:30.831Z,44.87
2019-04-06T14:52:08.059Z,46.54
2019-04-06T14:54:56.968Z,45.29
2019-04-06T14:57:38.451Z,45.64
2019-04-06T15:00:30.145Z,47.53
2019-04-06T15:03:18.198Z,46.36
2019-04-06T15:06:08.554Z,46.44
2019-04-06T15:11:56.112Z,48.59
2019-04-06T15:14:36.322Z,45.99
2019-04-06T15:19:49.174Z,47.33
2019-04-06T15:22:26.077Z,45.68
2019-04-06T15:25:04.723Z,47.10
2019-04-06T15:27:57.809Z,45.89
2019-04-06T15:30:43.663Z,45.48
2019-04-06T15:33:31.427Z,46.42
2019-04-06T15:36:21.941Z,46.96
2019-04-06T15:39:13.578Z,46.71
2019-04-06T15:42:03.716Z,47.61
2019-04-06T15:44:42.489Z,45.93
2019-04-06T15:47:28.486Z,45.02
2019-04-06T15:50:18.826Z,46.71
2019-04-06T15:53:16.199Z,46.39
2019-04-06T15:56:02.104Z,44.46
2019-04-06T15:58:35.838Z,45.32
2019-04-06T16:01:38.285Z,46.79
2019-04-06T16:04:13.963Z,45.19
2019-04-06T16:06:59.453Z,46.32
2019-04-06T16:09:48.565Z,45.60
2019-04-06T16:12:47.671Z,47.49
2019-04-06T16:15:28.950Z,47.17
2019-04-06T16:18:14.569Z,46.71
2019-04-06T16:21:01.500Z,45.06
2019-04-06T16:23:39.193Z,44.90
2019-04-06T16:26:32.125Z,45.87
2019-04-06T16:29:18.020Z,45.50
2019-04-06T16:32:17.699Z,45.67
2019-04-06T16:35:21.315Z,44.19
2019-04-06T16:37:57.565Z,45.51
2019-04-06T16:40:46.252Z,44.50
2019-04-06T16:43:22.903Z,45.13
2019-04-06T16:46:06.545Z,45.19
2019-04-06T16:49:07.678Z,44.50
2019-04-06T16:51:42.055Z,44.15
2019-04-06T16:54:26.058Z,44.91
2019-04-06T16:57:00.659Z,44.38
2019-04-06T16:59:59.195Z,45.71
2019-04-06T17:02:44.864Z,45.91
2019-04-06T17:05:22.292Z,46.19
2019-04-06T17:08:15.897Z,44.95
2019-04-06T17:10:59.713Z,46.65
2019-04-06T17:13:34.924Z,44.26
2019-04-06T17:16:15.842Z,45.08
2019-04-06T17:18:53.702Z,43.81
2019-04-06T17:21:47.051Z,45.48
2019-04-06T17:24:30.416Z,44.71
2019-04-06T17:27:16.202Z,44.54
2019-04-06T17:30:07.363Z,45.03
2019-04-06T17:32:53.299Z,45.67
2019-04-06T17:35:27.518Z,45.88
2019-04-06T17:38:06.134Z,45.67
2019-04-06T17:40:51.197Z,46.89
2019-04-06T17:43:47.508Z,45.54
2019-04-06T17:46:38.287Z,44.85
2019-04-06T17:49:17.380Z,44.69
2019-04-06T17:51:54.455Z,43.41
2019-04-06T17:54:32.535Z,44.09
2019-04-06T17:57:07.449Z,43.37
2019-04-06T17:59:53.041Z,45.81
2019-04-06T18:02:50.919Z,44.60
2019-04-06T18:05:49.034Z,43.70
2019-04-06T18:08:32.289Z,45.07
2019-04-06T18:11:18.209Z,45.07
2019-04-06T18:13:48.183Z,45.40
2019-04-06T18:16:16.363Z,45.24
2019-04-06T18:18:44.188Z,44.94
2019-04-06T18:21:11.956Z,45.01
2019-04-06T18:23:47.561Z,45.09
2019-04-06T18:26:12.503Z,43.88
2019-04-06T18:28:40.790Z,45.29
2019-04-06T18:31:42.871Z,44.99
2019-04-06T18:34:10.671Z,46.30
2019-04-06T18:37:00.413Z,46.32
2019-04-06T18:39:28.321Z,45.84
2019-04-06T18:41:56.399Z,46.01
2019-04-06T18:44:24.424Z,46.60
2019-04-06T18:46:52.147Z,44.44
2019-04-06T18:49:20.114Z,45.64
2019-04-06T18:51:47.919Z,46.15
2019-04-06T18:54:15.683Z,46.62
2019-04-06T18:56:43.924Z,45.68
2019-04-06T18:59:11.677Z,45.50
2019-04-06T19:01:39.387Z,45.21
2019-04-06T19:04:07.086Z,45.36
2019-04-06T19:06:35.075Z,45.23
2019-04-06T19:09:04.714Z,45.36
2019-04-06T19:11:32.521Z,47.28
2019-04-06T19:14:01.227Z,45.76
2019-04-06T19:16:36.823Z,46.24
2019-04-06T19:19:04.551Z,45.70
2019-04-06T19:21:33.053Z,45.27
2019-04-06T19:24:00.931Z,45.29
2019-04-06T19:26:28.845Z,45.82
2019-04-06T19:28:57.248Z,46.50
2019-04-06T19:31:25.076Z,46.96
2019-04-06T19:33:52.885Z,47.01
2019-04-06T19:36:20.683Z,46.47
2019-04-06T19:38:48.505Z,46.88
2019-04-06T19:41:38.412Z,47.42
2019-04-06T19:44:07.243Z,45.80
2019-04-06T19:46:35.190Z,45.72
2019-04-06T19:49:02.987Z,44.68
2019-04-06T19:51:30.924Z,44.95
2019-04-06T19:53:58.656Z,44.40
2019-04-06T19:56:26.515Z,45.35
2019-04-06T19:58:54.758Z,45.83
2019-04-06T20:01:22.848Z,45.77
2019-04-06T20:03:51.115Z,45.90
2019-04-06T20:06:19.071Z,46.05
2019-04-06T20:08:46.850Z,45.48
2019-04-06T20:11:14.614Z,46.61
2019-04-06T20:13:42.397Z,45.65
2019-04-06T20:16:10.209Z,45.00
2019-04-06T20:18:37.953Z,45.83
2019-04-06T20:21:06.058Z,45.25
2019-04-06T20:23:36.339Z,45.74
2019-04-06T20:26:06.587Z,45.03
2019-04-06T20:28:34.302Z,46.45
2019-04-06T20:31:02.426Z,46.01
2019-04-06T20:33:30.511Z,47.38
2019-04-06T20:35:58.733Z,46.62
2019-04-06T20:38:26.669Z,46.58
2019-04-06T20:40:54.865Z,46.63
2019-04-06T20:43:22.906Z,46.24
2019-04-06T20:45:51.072Z,46.75
2019-04-06T20:48:19.330Z,46.26
2019-04-06T20:50:47.138Z,46.94
2019-04-06T20:53:14.962Z,45.94
2019-04-06T20:55:43.099Z,46.88
2019-04-06T20:58:12.135Z,46.88
2019-04-06T21:00:41.557Z,46.58
2019-04-06T21:03:09.655Z,46.70
2019-04-06T21:05:39.512Z,47.73
2019-04-06T21:08:07.232Z,47.23
2019-04-06T21:10:35.053Z,46.76
2019-04-06T21:13:03.306Z,46.62
2019-04-06T21:15:31.125Z,47.36
2019-04-06T21:17:58.839Z,47.59
2019-04-06T21:20:26.576Z,48.48
2019-04-06T21:22:54.348Z,47.72
2019-04-06T21:25:22.238Z,48.02
2019-04-06T21:27:49.958Z,47.67
2019-04-06T21:30:18.160Z,47.32
2019-04-06T21:32:46.449Z,47.72
2019-04-06T21:35:14.707Z,48.27
2019-04-06T21:37:42.564Z,47.73
2019-04-06T21:40:10.486Z,47.50
2019-04-06T21:42:42.281Z,46.92
2019-04-06T21:45:14.031Z,47.08
2019-04-06T21:47:41.858Z,47.62
2019-04-06T21:50:10.152Z,47.73
2019-04-06T21:52:38.679Z,47.66
2019-04-06T21:55:07.136Z,47.65
2019-04-06T21:57:45.521Z,48.57
2019-04-06T22:00:16.774Z,49.33
2019-04-06T22:02:44.744Z,49.26
2019-04-06T22:05:12.677Z,47.79
2019-04-06T22:07:48.075Z,48.90
2019-04-06T22:10:10.552Z,48.33
2019-04-06T22:12:41.677Z,48.12
2019-04-06T22:15:10.474Z,49.87
2019-04-06T22:17:39.844Z,49.30
2019-04-06T22:20:36.200Z,48.40
2019-04-06T22:23:01.669Z,48.08
2019-04-06T22:25:29.995Z,49.20
2019-04-06T22:27:58.433Z,49.07
2019-04-06T22:30:26.835Z,48.58
2019-04-06T22:32:55.042Z,48.18
2019-04-06T22:35:24.756Z,49.60
2019-04-06T22:37:55.240Z,49.24
2019-04-06T22:40:23.474Z,49.50
2019-04-06T22:42:51.487Z,49.04
2019-04-06T22:45:20.402Z,47.63
2019-04-06T22:47:48.108Z,48.51
2019-04-06T22:50:16.408Z,49.01
2019-04-06T22:52:44.617Z,49.50
2019-04-06T22:55:12.986Z,47.07
2019-04-06T22:57:40.984Z,47.16
2019-04-06T23:00:10.163Z,48.24
2019-04-06T23:02:47.543Z,47.29
2019-04-06T23:05:23.411Z,47.53
2019-04-06T23:07:53.545Z,48.27
2019-04-06T23:10:21.313Z,48.24
2019-04-06T23:12:51.883Z,48.34
2019-04-06T23:15:19.639Z,47.65
2019-04-06T23:17:47.679Z,47.10
2019-04-06T23:20:15.506Z,47.47
2019-04-06T23:22:43.459Z,46.53
2019-04-06T23:25:11.788Z,47.09
2019-04-06T23:27:39.833Z,47.94
2019-04-06T23:30:08.772Z,46.83
2019-04-06T23:32:36.639Z,48.26
2019-04-06T23:35:04.757Z,48.05
2019-04-06T23:37:33.369Z,47.63
2019-04-06T23:40:02.157Z,48.95
2019-04-06T23:42:31.236Z,47.92
2019-04-06T23:45:03.566Z,47.53
2019-04-06T23:47:28.804Z,47.44
2019-04-06T23:49:56.636Z,46.43
2019-04-06T23:52:24.490Z,47.04
2019-04-06T23:54:52.326Z,48.13
2019-04-06T23:57:20.868Z,46.76
2019-04-06T23:59:48.941Z,47.22
